sensor_id;sensor_type;location;lat;lon;timestamp;pressure;altitude;pressure_sealevel;temperature;humidity
34979;BME280;21185;50.978;13.720;2023-05-25T00:03:08;98978.19;;;11.60;58.50
34979;BME280;21185;50.978;13.720;2023-05-25T00:08:11;98973.16;;;11.58;58.51
34979;BME280;21185;50.978;13.720;2023-05-25T00:13:12;98989.84;;;11.56;58.64
34979;BME280;21185;50.978;13.720;2023-05-25T00:18:14;98977.16;;;11.53;58.52
34979;BME280;21185;50.978;13.720;2023-05-25T00:23:17;98984.81;;;11.54;58.56
34979;BME280;21185;50.978;13.720;2023-05-25T00:28:19;98989.19;;;11.54;58.54
34979;BME280;21185;50.978;13.720;2023-05-25T00:33:21;98983.13;;;11.45;58.68
34979;BME280;21185;50.978;13.720;2023-05-25T00:38:23;98982.75;;;11.40;58.86
34979;BME280;21185;50.978;13.720;2023-05-25T00:43:25;98975.25;;;11.37;58.85
34979;BME280;21185;50.978;13.720;2023-05-25T00:48:28;98964.34;;;11.33;58.93
34979;BME280;21185;50.978;13.720;2023-05-25T00:53:32;98962.88;;;11.31;58.86
34979;BME280;21185;50.978;13.720;2023-05-25T00:58:38;98962.03;;;11.30;58.90
34979;BME280;21185;50.978;13.720;2023-05-25T01:03:45;98966.44;;;11.30;58.95
34979;BME280;21185;50.978;13.720;2023-05-25T01:08:58;98971.25;;;11.25;59.07
34979;BME280;21185;50.978;13.720;2023-05-25T01:14:02;98975.78;;;11.23;59.15
34979;BME280;21185;50.978;13.720;2023-05-25T01:19:04;98967.31;;;11.21;59.12
34979;BME280;21185;50.978;13.720;2023-05-25T01:24:32;98973.34;;;11.21;59.21
34979;BME280;21185;50.978;13.720;2023-05-25T01:29:36;98979.63;;;11.19;59.33
34979;BME280;21185;50.978;13.720;2023-05-25T01:34:42;98981.88;;;11.14;59.33
34979;BME280;21185;50.978;13.720;2023-05-25T01:39:44;98977.94;;;11.10;59.35
34979;BME280;21185;50.978;13.720;2023-05-25T01:44:57;98981.78;;;11.06;59.33
34979;BME280;21185;50.978;13.720;2023-05-25T01:50:26;98985.50;;;11.03;59.55
34979;BME280;21185;50.978;13.720;2023-05-25T01:55:39;98979.13;;;10.97;59.61
34979;BME280;21185;50.978;13.720;2023-05-25T02:00:46;98978.88;;;10.91;59.60
34979;BME280;21185;50.978;13.720;2023-05-25T02:05:50;98970.88;;;10.84;59.55
34979;BME280;21185;50.978;13.720;2023-05-25T02:10:54;98980.72;;;10.81;59.65
34979;BME280;21185;50.978;13.720;2023-05-25T02:15:56;98975.97;;;10.76;59.78
34979;BME280;21185;50.978;13.720;2023-05-25T02:21:00;98987.91;;;10.69;59.81
34979;BME280;21185;50.978;13.720;2023-05-25T02:26:02;98996.66;;;10.68;60.04
34979;BME280;21185;50.978;13.720;2023-05-25T02:31:04;98998.56;;;10.66;60.05
34979;BME280;21185;50.978;13.720;2023-05-25T02:36:07;99005.97;;;10.61;60.26
34979;BME280;21185;50.978;13.720;2023-05-25T02:41:09;98998.34;;;10.59;60.33
34979;BME280;21185;50.978;13.720;2023-05-25T02:46:12;99000.78;;;10.61;60.10
34979;BME280;21185;50.978;13.720;2023-05-25T02:51:14;99001.22;;;10.56;60.21
34979;BME280;21185;50.978;13.720;2023-05-25T02:56:18;99001.38;;;10.55;60.35
34979;BME280;21185;50.978;13.720;2023-05-25T03:01:20;99003.28;;;10.53;60.47
34979;BME280;21185;50.978;13.720;2023-05-25T03:06:28;99014.78;;;10.50;60.50
34979;BME280;21185;50.978;13.720;2023-05-25T03:11:35;99017.13;;;10.44;60.68
34979;BME280;21185;50.978;13.720;2023-05-25T03:16:39;99024.41;;;10.40;60.81
34979;BME280;21185;50.978;13.720;2023-05-25T03:21:42;99023.72;;;10.38;60.95
34979;BME280;21185;50.978;13.720;2023-05-25T03:26:46;99016.75;;;10.38;61.01
34979;BME280;21185;50.978;13.720;2023-05-25T03:31:49;99022.09;;;10.37;61.21
34979;BME280;21185;50.978;13.720;2023-05-25T03:36:53;99032.59;;;10.35;61.51
34979;BME280;21185;50.978;13.720;2023-05-25T03:41:56;99042.03;;;10.36;61.41
34979;BME280;21185;50.978;13.720;2023-05-25T03:46:59;99049.53;;;10.40;61.47
34979;BME280;21185;50.978;13.720;2023-05-25T03:52:02;99058.63;;;10.44;61.51
34979;BME280;21185;50.978;13.720;2023-05-25T03:57:08;99058.75;;;10.52;61.47
34979;BME280;21185;50.978;13.720;2023-05-25T04:02:10;99058.16;;;10.58;61.72
34979;BME280;21185;50.978;13.720;2023-05-25T04:07:12;99062.78;;;10.64;61.64
34979;BME280;21185;50.978;13.720;2023-05-25T04:12:14;99060.56;;;10.69;61.76
34979;BME280;21185;50.978;13.720;2023-05-25T04:17:17;99074.91;;;10.73;61.89
34979;BME280;21185;50.978;13.720;2023-05-25T04:22:20;99066.81;;;10.76;61.94
34979;BME280;21185;50.978;13.720;2023-05-25T04:27:22;99069.00;;;10.81;62.11
34979;BME280;21185;50.978;13.720;2023-05-25T04:32:24;99066.50;;;10.89;62.05
34979;BME280;21185;50.978;13.720;2023-05-25T04:38:00;99063.16;;;10.96;62.09
34979;BME280;21185;50.978;13.720;2023-05-25T04:43:04;99076.78;;;11.08;62.16
34979;BME280;21185;50.978;13.720;2023-05-25T04:48:06;99074.94;;;11.18;62.06
34979;BME280;21185;50.978;13.720;2023-05-25T04:53:08;99069.59;;;11.20;62.11
34979;BME280;21185;50.978;13.720;2023-05-25T04:58:11;99077.31;;;11.29;62.31
34979;BME280;21185;50.978;13.720;2023-05-25T05:03:16;99076.44;;;11.39;62.38
34979;BME280;21185;50.978;13.720;2023-05-25T05:08:19;99070.06;;;11.51;62.30
34979;BME280;21185;50.978;13.720;2023-05-25T05:13:25;99074.88;;;11.63;62.30
34979;BME280;21185;50.978;13.720;2023-05-25T05:18:30;99078.38;;;11.72;62.33
34979;BME280;21185;50.978;13.720;2023-05-25T05:23:32;99074.75;;;11.83;62.42
34979;BME280;21185;50.978;13.720;2023-05-25T05:28:36;99070.44;;;11.91;62.79
34979;BME280;21185;50.978;13.720;2023-05-25T05:33:38;99062.44;;;12.11;62.65
34979;BME280;21185;50.978;13.720;2023-05-25T05:38:48;99062.03;;;12.23;62.75
34979;BME280;21185;50.978;13.720;2023-05-25T05:43:50;99071.53;;;12.32;62.88
34979;BME280;21185;50.978;13.720;2023-05-25T05:48:52;99069.31;;;12.46;62.77
34979;BME280;21185;50.978;13.720;2023-05-25T05:53:54;99071.34;;;12.60;62.65
34979;BME280;21185;50.978;13.720;2023-05-25T05:58:56;99074.34;;;12.73;62.65
34979;BME280;21185;50.978;13.720;2023-05-25T06:04:01;99072.13;;;12.86;62.46
34979;BME280;21185;50.978;13.720;2023-05-25T06:09:04;99077.38;;;13.03;62.51
34979;BME280;21185;50.978;13.720;2023-05-25T06:14:08;99081.03;;;13.18;62.40
34979;BME280;21185;50.978;13.720;2023-05-25T06:19:10;99088.25;;;13.32;62.34
34979;BME280;21185;50.978;13.720;2023-05-25T06:24:14;99074.25;;;13.49;62.28
34979;BME280;21185;50.978;13.720;2023-05-25T06:29:18;99073.13;;;13.68;62.31
34979;BME280;21185;50.978;13.720;2023-05-25T06:34:22;99073.31;;;13.83;62.16
34979;BME280;21185;50.978;13.720;2023-05-25T06:39:24;99075.75;;;13.92;61.96
34979;BME280;21185;50.978;13.720;2023-05-25T06:44:26;99082.09;;;14.06;61.75
34979;BME280;21185;50.978;13.720;2023-05-25T06:49:29;99068.22;;;14.22;61.57
34979;BME280;21185;50.978;13.720;2023-05-25T06:54:31;99075.19;;;14.38;61.36
34979;BME280;21185;50.978;13.720;2023-05-25T06:59:42;99079.13;;;14.50;61.40
34979;BME280;21185;50.978;13.720;2023-05-25T07:04:44;99082.34;;;14.60;61.21
34979;BME280;21185;50.978;13.720;2023-05-25T07:09:46;99078.06;;;14.75;61.17
34979;BME280;21185;50.978;13.720;2023-05-25T07:14:48;99084.53;;;14.87;60.59
34979;BME280;21185;50.978;13.720;2023-05-25T07:19:51;99078.63;;;14.94;60.17
34979;BME280;21185;50.978;13.720;2023-05-25T07:24:53;99085.13;;;15.06;60.12
34979;BME280;21185;50.978;13.720;2023-05-25T07:29:55;99085.72;;;15.16;59.71
34979;BME280;21185;50.978;13.720;2023-05-25T07:34:57;99082.72;;;15.27;59.53
34979;BME280;21185;50.978;13.720;2023-05-25T07:39:59;99080.09;;;15.27;59.06
34979;BME280;21185;50.978;13.720;2023-05-25T07:45:01;99081.16;;;15.41;59.13
34979;BME280;21185;50.978;13.720;2023-05-25T07:50:04;99077.31;;;15.60;59.21
34979;BME280;21185;50.978;13.720;2023-05-25T07:55:07;99083.44;;;15.67;59.16
34979;BME280;21185;50.978;13.720;2023-05-25T08:00:13;99089.88;;;15.79;58.90
34979;BME280;21185;50.978;13.720;2023-05-25T08:05:15;99089.66;;;15.88;58.66
34979;BME280;21185;50.978;13.720;2023-05-25T08:10:18;99087.59;;;15.99;59.10
34979;BME280;21185;50.978;13.720;2023-05-25T08:15:20;99090.59;;;16.10;58.39
34979;BME280;21185;50.978;13.720;2023-05-25T08:20:22;99096.41;;;16.20;58.54
34979;BME280;21185;50.978;13.720;2023-05-25T08:25:27;99080.88;;;16.34;58.33
34979;BME280;21185;50.978;13.720;2023-05-25T08:30:29;99096.06;;;16.38;58.20
34979;BME280;21185;50.978;13.720;2023-05-25T08:35:33;99095.97;;;16.46;57.87
34979;BME280;21185;50.978;13.720;2023-05-25T08:40:35;99099.69;;;16.52;56.99
34979;BME280;21185;50.978;13.720;2023-05-25T08:45:42;99102.75;;;16.56;57.34
34979;BME280;21185;50.978;13.720;2023-05-25T08:50:49;99103.25;;;16.74;56.90
34979;BME280;21185;50.978;13.720;2023-05-25T08:55:53;99102.16;;;16.68;56.57
34979;BME280;21185;50.978;13.720;2023-05-25T09:01:01;99094.75;;;16.72;55.90
34979;BME280;21185;50.978;13.720;2023-05-25T09:06:05;99106.94;;;16.79;56.02
34979;BME280;21185;50.978;13.720;2023-05-25T09:11:08;99108.13;;;16.92;55.86
34979;BME280;21185;50.978;13.720;2023-05-25T09:16:13;99101.88;;;16.93;55.39
34979;BME280;21185;50.978;13.720;2023-05-25T09:21:17;99106.84;;;17.02;55.60
34979;BME280;21185;50.978;13.720;2023-05-25T09:26:20;99105.81;;;17.18;55.79
34979;BME280;21185;50.978;13.720;2023-05-25T09:31:22;99111.59;;;17.28;55.40
34979;BME280;21185;50.978;13.720;2023-05-25T09:36:25;99112.47;;;17.35;55.53
34979;BME280;21185;50.978;13.720;2023-05-25T09:41:28;99119.88;;;17.46;55.14
34979;BME280;21185;50.978;13.720;2023-05-25T09:46:30;99114.53;;;17.40;54.44
34979;BME280;21185;50.978;13.720;2023-05-25T09:51:37;99118.91;;;17.33;53.40
34979;BME280;21185;50.978;13.720;2023-05-25T09:56:40;99125.47;;;17.43;53.48
34979;BME280;21185;50.978;13.720;2023-05-25T10:01:42;99122.63;;;17.60;53.78
34979;BME280;21185;50.978;13.720;2023-05-25T10:06:48;99128.84;;;17.73;53.83
34979;BME280;21185;50.978;13.720;2023-05-25T10:11:53;99119.97;;;17.74;52.86
34979;BME280;21185;50.978;13.720;2023-05-25T10:16:58;99120.47;;;17.85;53.07
34979;BME280;21185;50.978;13.720;2023-05-25T10:27:18;99113.91;;;17.95;52.36
34979;BME280;21185;50.978;13.720;2023-05-25T10:32:38;99110.16;;;18.04;52.25
34979;BME280;21185;50.978;13.720;2023-05-25T10:37:42;99113.34;;;18.00;51.88
34979;BME280;21185;50.978;13.720;2023-05-25T10:42:44;99116.47;;;18.10;52.08
34979;BME280;21185;50.978;13.720;2023-05-25T10:47:49;99121.38;;;18.20;52.00
34979;BME280;21185;50.978;13.720;2023-05-25T10:53:11;99111.53;;;18.28;51.11
34979;BME280;21185;50.978;13.720;2023-05-25T10:58:15;99106.88;;;18.24;51.09
34979;BME280;21185;50.978;13.720;2023-05-25T11:03:18;99109.97;;;18.34;51.83
34979;BME280;21185;50.978;13.720;2023-05-25T11:08:21;99102.56;;;18.44;51.66
34979;BME280;21185;50.978;13.720;2023-05-25T11:18:39;99090.03;;;18.46;50.79
34979;BME280;21185;50.978;13.720;2023-05-25T11:23:55;99087.13;;;18.34;50.39
34979;BME280;21185;50.978;13.720;2023-05-25T11:29:00;99087.13;;;18.34;50.93
34979;BME280;21185;50.978;13.720;2023-05-25T11:34:12;99086.78;;;18.44;50.84
34979;BME280;21185;50.978;13.720;2023-05-25T11:39:15;99084.22;;;18.51;51.17
34979;BME280;21185;50.978;13.720;2023-05-25T11:44:30;99092.94;;;18.58;51.40
34979;BME280;21185;50.978;13.720;2023-05-25T11:49:34;99081.63;;;18.57;50.77
34979;BME280;21185;50.978;13.720;2023-05-25T11:54:39;99085.75;;;18.66;50.73
34979;BME280;21185;50.978;13.720;2023-05-25T11:59:52;99079.25;;;18.62;50.13
34979;BME280;21185;50.978;13.720;2023-05-25T12:04:59;99074.59;;;18.64;50.14
34979;BME280;21185;50.978;13.720;2023-05-25T12:10:12;99077.28;;;18.71;50.44
34979;BME280;21185;50.978;13.720;2023-05-25T12:15:17;99073.03;;;18.70;50.16
34979;BME280;21185;50.978;13.720;2023-05-25T12:20:23;99058.69;;;18.72;49.94
34979;BME280;21185;50.978;13.720;2023-05-25T12:25:25;99064.34;;;18.76;49.37
34979;BME280;21185;50.978;13.720;2023-05-25T12:30:31;99052.63;;;18.79;49.48
34979;BME280;21185;50.978;13.720;2023-05-25T12:35:46;99059.16;;;18.89;49.25
34979;BME280;21185;50.978;13.720;2023-05-25T12:41:05;99050.25;;;18.90;48.95
34979;BME280;21185;50.978;13.720;2023-05-25T12:46:08;99047.63;;;18.90;49.15
34979;BME280;21185;50.978;13.720;2023-05-25T12:51:10;99038.94;;;18.96;49.38
34979;BME280;21185;50.978;13.720;2023-05-25T12:56:12;99041.00;;;19.01;49.51
34979;BME280;21185;50.978;13.720;2023-05-25T13:01:14;99042.19;;;18.98;49.13
34979;BME280;21185;50.978;13.720;2023-05-25T13:06:16;99044.41;;;18.95;48.38
34979;BME280;21185;50.978;13.720;2023-05-25T13:11:18;99038.94;;;18.96;48.51
34979;BME280;21185;50.978;13.720;2023-05-25T13:16:24;99036.94;;;18.98;47.97
34979;BME280;21185;50.978;13.720;2023-05-25T13:21:30;99047.88;;;19.02;47.83
34979;BME280;21185;50.978;13.720;2023-05-25T13:26:34;99041.44;;;19.11;47.62
34979;BME280;21185;50.978;13.720;2023-05-25T13:31:36;99038.63;;;19.19;47.68
34979;BME280;21185;50.978;13.720;2023-05-25T13:36:41;99028.31;;;19.24;47.64
34979;BME280;21185;50.978;13.720;2023-05-25T13:41:43;99018.41;;;19.26;47.47
34979;BME280;21185;50.978;13.720;2023-05-25T13:46:47;99012.72;;;19.29;46.93
34979;BME280;21185;50.978;13.720;2023-05-25T13:51:49;99009.50;;;19.34;46.84
34979;BME280;21185;50.978;13.720;2023-05-25T13:56:51;99008.50;;;19.35;45.89
34979;BME280;21185;50.978;13.720;2023-05-25T14:01:54;98999.78;;;19.41;46.01
34979;BME280;21185;50.978;13.720;2023-05-25T14:06:56;99006.88;;;19.47;46.53
34979;BME280;21185;50.978;13.720;2023-05-25T14:11:59;99002.06;;;19.57;46.50
34979;BME280;21185;50.978;13.720;2023-05-25T14:17:02;99001.06;;;19.65;45.98
34979;BME280;21185;50.978;13.720;2023-05-25T14:22:04;99003.88;;;19.70;46.07
34979;BME280;21185;50.978;13.720;2023-05-25T14:27:09;98997.81;;;19.76;46.07
34979;BME280;21185;50.978;13.720;2023-05-25T14:32:12;98995.97;;;19.83;46.12
34979;BME280;21185;50.978;13.720;2023-05-25T14:37:15;98991.50;;;19.90;45.80
34979;BME280;21185;50.978;13.720;2023-05-25T14:42:17;99000.63;;;19.94;46.29
34979;BME280;21185;50.978;13.720;2023-05-25T14:47:19;98995.97;;;20.03;46.12
34979;BME280;21185;50.978;13.720;2023-05-25T14:52:21;98990.47;;;20.11;46.25
34979;BME280;21185;50.978;13.720;2023-05-25T14:57:24;98990.69;;;20.10;46.01
34979;BME280;21185;50.978;13.720;2023-05-25T15:02:26;98992.50;;;20.02;45.77
34979;BME280;21185;50.978;13.720;2023-05-25T15:07:29;98984.41;;;19.97;45.99
34979;BME280;21185;50.978;13.720;2023-05-25T15:12:31;98995.34;;;19.94;45.48
34979;BME280;21185;50.978;13.720;2023-05-25T15:17:34;98988.28;;;19.95;45.04
34979;BME280;21185;50.978;13.720;2023-05-25T15:22:36;98994.56;;;19.94;44.74
34979;BME280;21185;50.978;13.720;2023-05-25T15:27:38;98995.34;;;19.94;45.10
34979;BME280;21185;50.978;13.720;2023-05-25T15:32:40;98990.31;;;19.86;45.37
34979;BME280;21185;50.978;13.720;2023-05-25T15:37:43;98986.66;;;19.81;44.49
34979;BME280;21185;50.978;13.720;2023-05-25T15:42:47;98991.13;;;19.80;44.93
34979;BME280;21185;50.978;13.720;2023-05-25T15:47:52;98978.34;;;19.77;45.35
34979;BME280;21185;50.978;13.720;2023-05-25T15:53:17;98965.81;;;19.72;45.31
34979;BME280;21185;50.978;13.720;2023-05-25T15:58:19;98969.06;;;19.68;45.09
34979;BME280;21185;50.978;13.720;2023-05-25T16:03:21;98970.25;;;19.65;45.29
34979;BME280;21185;50.978;13.720;2023-05-25T16:08:23;98970.47;;;19.64;45.02
34979;BME280;21185;50.978;13.720;2023-05-25T16:13:46;98961.16;;;19.61;44.80
34979;BME280;21185;50.978;13.720;2023-05-25T16:18:48;98953.88;;;19.57;45.22
34979;BME280;21185;50.978;13.720;2023-05-25T16:23:50;98964.00;;;19.53;45.12
34979;BME280;21185;50.978;13.720;2023-05-25T16:28:52;98957.28;;;19.51;44.99
34979;BME280;21185;50.978;13.720;2023-05-25T16:33:54;98960.72;;;19.45;44.71
34979;BME280;21185;50.978;13.720;2023-05-25T16:38:56;98955.25;;;19.39;45.12
34979;BME280;21185;50.978;13.720;2023-05-25T16:43:58;98960.91;;;19.36;45.15
34979;BME280;21185;50.978;13.720;2023-05-25T16:49:02;98952.41;;;19.34;45.39
34979;BME280;21185;50.978;13.720;2023-05-25T16:54:05;98949.97;;;19.33;45.35
34979;BME280;21185;50.978;13.720;2023-05-25T16:59:07;98946.94;;;19.29;45.20
34979;BME280;21185;50.978;13.720;2023-05-25T17:04:10;98949.16;;;19.26;45.30
34979;BME280;21185;50.978;13.720;2023-05-25T17:09:12;98955.84;;;19.22;45.45
34979;BME280;21185;50.978;13.720;2023-05-25T17:14:14;98946.72;;;19.18;45.44
34979;BME280;21185;50.978;13.720;2023-05-25T17:19:18;98958.47;;;19.15;45.37
34979;BME280;21185;50.978;13.720;2023-05-25T17:24:20;98959.28;;;19.09;45.58
34979;BME280;21185;50.978;13.720;2023-05-25T17:29:24;98958.25;;;19.03;45.53
34979;BME280;21185;50.978;13.720;2023-05-25T17:34:27;98963.28;;;18.98;45.33
34979;BME280;21185;50.978;13.720;2023-05-25T17:39:30;98958.22;;;18.90;45.48
34979;BME280;21185;50.978;13.720;2023-05-25T17:44:35;98961.03;;;18.82;45.43
34979;BME280;21185;50.978;13.720;2023-05-25T17:50:10;98961.63;;;18.77;45.37
34979;BME280;21185;50.978;13.720;2023-05-25T17:55:12;98962.63;;;18.70;45.60
34979;BME280;21185;50.978;13.720;2023-05-25T18:00:14;98952.06;;;18.63;45.82
34979;BME280;21185;50.978;13.720;2023-05-25T18:05:20;98962.53;;;18.57;45.85
34979;BME280;21185;50.978;13.720;2023-05-25T18:10:22;98964.53;;;18.48;46.09
34979;BME280;21185;50.978;13.720;2023-05-25T18:15:24;98961.88;;;18.41;46.24
34979;BME280;21185;50.978;13.720;2023-05-25T18:20:26;98969.53;;;18.36;46.19
34979;BME280;21185;50.978;13.720;2023-05-25T18:25:28;98976.38;;;18.31;46.58
34979;BME280;21185;50.978;13.720;2023-05-25T18:30:31;98975.53;;;18.24;46.82
34979;BME280;21185;50.978;13.720;2023-05-25T18:35:33;98981.75;;;18.16;46.68
34979;BME280;21185;50.978;13.720;2023-05-25T18:40:37;98978.47;;;18.07;46.93
34979;BME280;21185;50.978;13.720;2023-05-25T18:45:40;98981.63;;;17.96;47.09
34979;BME280;21185;50.978;13.720;2023-05-25T18:50:42;98985.41;;;17.87;47.57
34979;BME280;21185;50.978;13.720;2023-05-25T18:55:44;98994.22;;;17.79;48.05
34979;BME280;21185;50.978;13.720;2023-05-25T19:00:56;98999.81;;;17.70;48.14
34979;BME280;21185;50.978;13.720;2023-05-25T19:05:58;99003.34;;;17.62;48.54
34979;BME280;21185;50.978;13.720;2023-05-25T19:11:00;99004.09;;;17.56;48.15
34979;BME280;21185;50.978;13.720;2023-05-25T19:16:02;99013.97;;;17.54;48.32
34979;BME280;21185;50.978;13.720;2023-05-25T19:21:05;99017.16;;;17.49;48.30
34979;BME280;21185;50.978;13.720;2023-05-25T19:26:07;99022.78;;;17.46;47.94
34979;BME280;21185;50.978;13.720;2023-05-25T19:31:09;99026.16;;;17.40;48.09
34979;BME280;21185;50.978;13.720;2023-05-25T19:36:17;99029.34;;;17.36;48.28
34979;BME280;21185;50.978;13.720;2023-05-25T19:41:20;99035.16;;;17.31;48.07
34979;BME280;21185;50.978;13.720;2023-05-25T19:46:22;99044.75;;;17.24;48.47
34979;BME280;21185;50.978;13.720;2023-05-25T19:51:26;99037.81;;;17.16;48.81
34979;BME280;21185;50.978;13.720;2023-05-25T19:56:28;99052.47;;;17.11;48.66
34979;BME280;21185;50.978;13.720;2023-05-25T20:01:30;99052.84;;;17.08;48.88
34979;BME280;21185;50.978;13.720;2023-05-25T20:06:32;99054.22;;;17.04;48.70
34979;BME280;21185;50.978;13.720;2023-05-25T20:11:34;99055.59;;;17.00;49.34
34979;BME280;21185;50.978;13.720;2023-05-25T20:16:36;99060.38;;;16.96;49.27
34979;BME280;21185;50.978;13.720;2023-05-25T20:21:38;99064.38;;;16.92;49.44
34979;BME280;21185;50.978;13.720;2023-05-25T20:26:41;99079.66;;;16.89;49.36
34979;BME280;21185;50.978;13.720;2023-05-25T20:31:42;99077.41;;;16.86;49.50
34979;BME280;21185;50.978;13.720;2023-05-25T20:36:46;99075.50;;;16.79;49.65
34979;BME280;21185;50.978;13.720;2023-05-25T20:41:48;99081.47;;;16.73;49.79
34979;BME280;21185;50.978;13.720;2023-05-25T20:46:50;99076.97;;;16.67;50.00
34979;BME280;21185;50.978;13.720;2023-05-25T20:51:52;99079.91;;;16.64;50.14
34979;BME280;21185;50.978;13.720;2023-05-25T20:56:53;99085.50;;;16.61;50.29
34979;BME280;21185;50.978;13.720;2023-05-25T21:01:56;99091.47;;;16.55;50.29
34979;BME280;21185;50.978;13.720;2023-05-25T21:06:58;99096.44;;;16.50;50.45
34979;BME280;21185;50.978;13.720;2023-05-25T21:12:00;99099.13;;;16.42;50.89
34979;BME280;21185;50.978;13.720;2023-05-25T21:17:03;99106.72;;;16.37;50.89
34979;BME280;21185;50.978;13.720;2023-05-25T21:22:05;99108.25;;;16.31;50.93
34979;BME280;21185;50.978;13.720;2023-05-25T21:27:07;99116.63;;;16.27;50.79
34979;BME280;21185;50.978;13.720;2023-05-25T21:32:09;99120.78;;;16.21;51.13
34979;BME280;21185;50.978;13.720;2023-05-25T21:37:12;99118.06;;;16.14;51.38
34979;BME280;21185;50.978;13.720;2023-05-25T21:42:14;99123.53;;;16.05;51.41
34979;BME280;21185;50.978;13.720;2023-05-25T21:47:16;99127.69;;;15.99;51.80
34979;BME280;21185;50.978;13.720;2023-05-25T21:52:18;99126.41;;;15.95;51.74
34979;BME280;21185;50.978;13.720;2023-05-25T21:57:20;99136.94;;;15.87;52.02
34979;BME280;21185;50.978;13.720;2023-05-25T22:02:22;99132.84;;;15.84;52.05
34979;BME280;21185;50.978;13.720;2023-05-25T22:07:25;99134.84;;;15.82;52.12
34979;BME280;21185;50.978;13.720;2023-05-25T22:12:27;99139.59;;;15.79;52.23
34979;BME280;21185;50.978;13.720;2023-05-25T22:17:29;99142.56;;;15.76;52.15
34979;BME280;21185;50.978;13.720;2023-05-25T22:22:31;99143.91;;;15.72;52.41
34979;BME280;21185;50.978;13.720;2023-05-25T22:27:33;99136.56;;;15.67;52.40
34979;BME280;21185;50.978;13.720;2023-05-25T22:32:35;99138.91;;;15.62;52.49
34979;BME280;21185;50.978;13.720;2023-05-25T22:37:37;99147.28;;;15.58;52.56
34979;BME280;21185;50.978;13.720;2023-05-25T22:42:39;99150.22;;;15.54;52.67
34979;BME280;21185;50.978;13.720;2023-05-25T22:47:41;99151.72;;;15.49;52.69
34979;BME280;21185;50.978;13.720;2023-05-25T22:52:43;99158.28;;;15.45;52.79
34979;BME280;21185;50.978;13.720;2023-05-25T22:57:45;99158.63;;;15.42;52.81
34979;BME280;21185;50.978;13.720;2023-05-25T23:02:47;99167.16;;;15.36;52.86
34979;BME280;21185;50.978;13.720;2023-05-25T23:07:49;99161.63;;;15.31;53.25
34979;BME280;21185;50.978;13.720;2023-05-25T23:12:51;99166.56;;;15.26;53.26
34979;BME280;21185;50.978;13.720;2023-05-25T23:17:55;99165.25;;;15.21;53.33
34979;BME280;21185;50.978;13.720;2023-05-25T23:22:57;99161.34;;;15.17;53.40
34979;BME280;21185;50.978;13.720;2023-05-25T23:27:59;99163.50;;;15.14;53.68
34979;BME280;21185;50.978;13.720;2023-05-25T23:33:01;99159.59;;;15.10;53.78
34979;BME280;21185;50.978;13.720;2023-05-25T23:38:03;99155.84;;;15.04;54.02
34979;BME280;21185;50.978;13.720;2023-05-25T23:43:06;99153.75;;;15.00;53.90
34979;BME280;21185;50.978;13.720;2023-05-25T23:48:08;99148.03;;;14.96;54.35
34979;BME280;21185;50.978;13.720;2023-05-25T23:53:10;99153.78;;;14.92;54.28
34979;BME280;21185;50.978;13.720;2023-05-25T23:58:12;99163.09;;;14.86;54.56
